This is the latest recevied weather packets stored in our database for station/object VA3WWD-2. If no packets are shown the sender has not sent any weather packets the latest 10 day(s).
| Time | Temp. | Humidity | Pressure | Rain* | Wind** | Luminosity | Snow |
|---|---|---|---|---|---|---|---|
| 1777840248 | 6.11° C | 72% | - | 0 mm | 0 m/s | - | - |
| 1777839647 | 6.11° C | 72% | - | 0 mm | 0 m/s | - | - |
| 1777839349 | 6.11° C | 71% | - | 0 mm | 0 m/s | - | - |
| 1777837555 | 7.78° C | 57% | - | 0 mm | 0 m/s | - | - |
| 1777837257 | 8.89° C | 53% | - | 0 mm | 0 m/s | - | - |
| 1777836658 | 10° C | 46% | - | 0 mm | 0 m/s | - | - |
| 1777836360 | 10° C | 41% | - | 0 mm | 0 m/s | - | - |
| 1777836059 | 10.56° C | 41% | - | 0 mm | 0 m/s | - | - |
| 1777835761 | 10° C | 40% | - | 0 mm | 0 m/s | - | - |
| 1777835463 | 10.56° C | 40% | - | 0 mm | 0 m/s | - | - |
| 1777835162 | 10° C | 39% | - | 0 mm | 0 m/s | - | - |
| 1777834864 | 9.44° C | 42% | - | 0 mm | 0 m/s | - | - |
| 1777834566 | 10° C | 41% | - | 0 mm | 0 m/s | - | - |
| 1777834265 | 10.56° C | 36% | - | 0 mm | 0 m/s | - | - |
| 1777833967 | 10.56° C | 32% | - | 0 mm | 0 m/s | - | - |
| 1777833669 | 12.22° C | 28% | - | 0 mm | 0 m/s | - | - |
| 1777833368 | 12.22° C | 26% | - | 0 mm | 0 m/s | - | - |
| 1777833070 | 12.78° C | 24% | - | 0 mm | 0 m/s | - | - |
| 1777832772 | 12.22° C | 25% | - | 0 mm | 0 m/s | - | - |
| 1777832471 | 12.78° C | 26% | - | 0 mm | 0 m/s | - | - |
| 1777832173 | 11.67° C | 24% | - | 0 mm | 0 m/s | - | - |
| 1777831875 | 12.22° C | 26% | - | 0 mm | 0 m/s | - | - |
| 1777831574 | 11.67° C | 30% | - | 0 mm | 0 m/s | - | - |
| 1777830978 | 11.11° C | 30% | - | 0 mm | 0 m/s | - | - |
| 1777830677 | 11.11° C | 30% | - | 0 mm | 0 m/s | - | - |
* Rain latest hour (hover to see other rain measurements)
** Current wind speed in m/s (hover to see current wind gust speed)